createdAt,value
2023-02-22T00:01:35.455Z,63.33
2023-02-22T00:04:04.681Z,76.67
2023-02-22T00:06:35.276Z,69.73
2023-02-22T00:09:03.431Z,72.03
2023-02-22T00:11:32.229Z,66.67
2023-02-22T00:14:04.148Z,75.33
2023-02-22T00:16:32.432Z,65.80
2023-02-22T00:19:00.642Z,67.77
2023-02-22T00:21:31.145Z,64.60
2023-02-22T00:23:59.256Z,73.07
2023-02-22T00:26:27.752Z,79.73
2023-02-22T00:28:56.372Z,74.23
2023-02-22T00:31:28.451Z,71.30
2023-02-22T00:33:58.846Z,70.20
2023-02-22T00:36:27.047Z,64.40
2023-02-22T00:38:55.645Z,67.00
2023-02-22T00:41:25.852Z,72.43
2023-02-22T00:43:56.476Z,78.37
2023-02-22T00:46:24.609Z,71.43
2023-02-22T00:48:55.857Z,73.53
2023-02-22T00:51:26.765Z,72.53
2023-02-22T00:53:56.909Z,73.80
2023-02-22T00:56:25.098Z,75.00
2023-02-22T00:58:56.166Z,81.23
2023-02-22T01:01:26.642Z,70.63
2023-02-22T01:03:59.095Z,71.30
2023-02-22T01:06:27.380Z,77.67
2023-02-22T01:08:55.568Z,72.93
2023-02-22T01:11:25.501Z,70.30
2023-02-22T01:13:55.353Z,65.77
2023-02-22T01:16:23.740Z,66.23
2023-02-22T01:18:54.280Z,69.90
2023-02-22T01:21:23.837Z,70.03
2023-02-22T01:23:52.054Z,72.00
2023-02-22T01:26:20.244Z,67.33
2023-02-22T01:29:07.140Z,67.83
2023-02-22T01:31:35.338Z,64.93
2023-02-22T01:34:03.516Z,65.17
2023-02-22T01:36:32.958Z,59.03
2023-02-22T01:39:03.310Z,57.47
2023-02-22T01:41:31.421Z,53.60
2023-02-22T01:44:15.199Z,59.30
2023-02-22T01:46:45.442Z,58.07
2023-02-22T01:49:15.975Z,62.67
2023-02-22T01:51:48.344Z,58.00
2023-02-22T01:54:19.851Z,54.17
2023-02-22T01:56:53.981Z,53.77
2023-02-22T01:59:24.964Z,56.80
2023-02-22T02:01:53.106Z,57.43
2023-02-22T02:04:25.480Z,57.47
2023-02-22T02:07:01.549Z,72.03
2023-02-22T02:09:35.257Z,59.70
2023-02-22T02:12:05.097Z,67.63
2023-02-22T02:14:33.373Z,63.73
2023-02-22T02:17:02.313Z,59.10
2023-02-22T02:19:41.890Z,67.00
2023-02-22T02:22:42.746Z,54.97
2023-02-22T02:26:00.555Z,55.13
2023-02-22T02:28:56.911Z,51.63
2023-02-22T02:32:06.081Z,52.37
2023-02-22T02:34:41.689Z,49.23
2023-02-22T02:37:21.222Z,44.80
2023-02-22T02:39:56.310Z,48.33
2023-02-22T02:42:30.935Z,46.27
2023-02-22T02:45:05.104Z,44.63
2023-02-22T02:47:39.888Z,47.07
2023-02-22T02:50:15.090Z,47.93
2023-02-22T02:52:47.498Z,49.57
2023-02-22T02:55:16.115Z,49.50
2023-02-22T02:57:44.998Z,56.70
2023-02-22T03:00:23.300Z,57.03
2023-02-22T03:03:06.500Z,58.67
2023-02-22T03:05:59.505Z,57.80
2023-02-22T03:08:35.722Z,54.20
2023-02-22T03:11:15.267Z,55.97
2023-02-22T03:13:55.583Z,49.77
2023-02-22T03:16:35.813Z,49.63
2023-02-22T03:19:12.737Z,52.17
2023-02-22T03:21:47.977Z,53.80
2023-02-22T03:24:22.972Z,69.73
2023-02-22T03:26:59.200Z,63.30
2023-02-22T03:29:36.542Z,51.10
2023-02-22T03:32:11.284Z,52.90
2023-02-22T03:34:47.527Z,56.13
2023-02-22T03:37:21.074Z,47.17
2023-02-22T03:39:52.892Z,48.93
2023-02-22T03:42:25.039Z,49.80
2023-02-22T03:44:59.601Z,67.40
2023-02-22T03:47:33.475Z,52.60
2023-02-22T03:50:12.653Z,72.47
2023-02-22T03:52:41.532Z,54.63
2023-02-22T03:55:17.663Z,42.17
2023-02-22T03:57:52.153Z,46.67
2023-02-22T04:00:23.741Z,47.50
2023-02-22T04:02:53.977Z,40.70
2023-02-22T04:05:26.170Z,39.57
2023-02-22T04:07:58.556Z,47.03
2023-02-22T04:10:29.124Z,52.80
2023-02-22T04:12:57.396Z,43.70
2023-02-22T04:15:26.318Z,48.77
2023-02-22T04:17:59.964Z,59.93
2023-02-22T04:20:32.655Z,57.23
2023-02-22T04:23:06.200Z,44.90
2023-02-22T04:25:39.146Z,45.10
2023-02-22T04:28:12.887Z,43.90
2023-02-22T04:30:48.541Z,45.93
2023-02-22T04:33:18.877Z,55.30
2023-02-22T04:35:51.530Z,46.73
2023-02-22T04:38:19.840Z,49.33
2023-02-22T04:40:49.098Z,44.40
2023-02-22T04:43:17.278Z,42.23
2023-02-22T04:45:45.462Z,37.40
2023-02-22T04:48:15.732Z,42.97
2023-02-22T04:50:44.102Z,43.33
2023-02-22T04:53:13.660Z,63.77
2023-02-22T04:55:44.037Z,44.63
2023-02-22T04:58:12.541Z,40.50
2023-02-22T05:00:40.593Z,41.43
2023-02-22T05:03:09.031Z,62.53
2023-02-22T05:05:39.189Z,42.07
2023-02-22T05:08:07.732Z,48.73
2023-02-22T05:10:37.369Z,39.93
2023-02-22T05:13:09.242Z,37.07
2023-02-22T05:15:37.660Z,38.67
2023-02-22T05:18:06.043Z,39.80
2023-02-22T05:20:37.067Z,37.37
2023-02-22T05:23:07.405Z,54.93
2023-02-22T05:25:37.025Z,43.50
2023-02-22T05:28:07.042Z,36.70
2023-02-22T05:30:40.377Z,38.70
2023-02-22T05:33:08.970Z,39.83
2023-02-22T05:35:39.511Z,37.00
2023-02-22T05:38:08.557Z,42.40
2023-02-22T05:40:38.203Z,43.40
2023-02-22T05:43:06.502Z,41.07
2023-02-22T05:45:34.807Z,54.20
2023-02-22T05:48:03.691Z,42.30
2023-02-22T05:50:34.150Z,39.93
2023-02-22T05:53:05.633Z,47.30
2023-02-22T05:55:33.783Z,35.40
2023-02-22T05:58:05.780Z,35.80
2023-02-22T06:00:36.474Z,39.00
2023-02-22T06:03:06.992Z,34.87
2023-02-22T06:05:35.491Z,32.97
2023-02-22T06:08:04.707Z,34.33
2023-02-22T06:10:35.403Z,30.13
2023-02-22T06:13:06.227Z,36.97
2023-02-22T06:15:36.904Z,38.67
2023-02-22T06:18:07.211Z,35.13
2023-02-22T06:20:37.899Z,32.87
2023-02-22T06:23:06.059Z,35.50
2023-02-22T06:25:36.702Z,31.13
2023-02-22T06:28:06.407Z,31.17
2023-02-22T06:30:34.885Z,31.37
2023-02-22T06:33:02.994Z,30.60
2023-02-22T06:35:33.254Z,33.03
2023-02-22T06:38:04.156Z,31.53
2023-02-22T06:40:34.789Z,27.80
2023-02-22T06:43:06.350Z,28.17
2023-02-22T06:45:36.558Z,34.87
2023-02-22T06:48:07.501Z,31.80
2023-02-22T06:50:38.222Z,31.77
2023-02-22T06:53:09.272Z,30.10
2023-02-22T06:55:39.869Z,27.33
2023-02-22T06:58:11.915Z,26.03
2023-02-22T07:00:40.009Z,28.03
2023-02-22T07:03:08.292Z,29.60
2023-02-22T07:05:36.482Z,31.00
2023-02-22T07:08:06.578Z,29.60
2023-02-22T07:10:38.936Z,30.07
2023-02-22T07:13:08.928Z,29.47
2023-02-22T07:15:38.584Z,26.80
2023-02-22T07:18:09.227Z,24.73
2023-02-22T07:20:37.304Z,28.83
2023-02-22T07:23:05.933Z,30.40
2023-02-22T07:25:36.750Z,26.57
2023-02-22T07:28:05.220Z,29.23
2023-02-22T07:30:35.691Z,26.13
2023-02-22T07:33:07.031Z,29.47
2023-02-22T07:35:39.469Z,27.13
2023-02-22T07:38:09.238Z,31.07
2023-02-22T07:40:39.333Z,28.70
2023-02-22T07:43:16.905Z,33.57
2023-02-22T07:45:45.629Z,28.23
2023-02-22T07:48:17.616Z,35.17
2023-02-22T07:50:46.582Z,33.87
2023-02-22T07:53:16.388Z,27.57
2023-02-22T07:55:47.765Z,24.23
2023-02-22T07:58:16.690Z,27.20
2023-02-22T08:00:45.045Z,29.90
2023-02-22T08:03:19.287Z,27.53
2023-02-22T08:05:49.294Z,28.90
2023-02-22T08:08:19.852Z,29.27
2023-02-22T08:10:49.094Z,24.03
2023-02-22T08:13:17.731Z,26.50
2023-02-22T08:15:47.225Z,26.73
2023-02-22T08:18:19.517Z,20.57
2023-02-22T08:20:49.665Z,26.97
2023-02-22T08:23:19.695Z,23.47
2023-02-22T08:25:50.181Z,27.37
2023-02-22T08:28:21.596Z,24.93
2023-02-22T08:30:52.504Z,25.60
2023-02-22T08:33:22.551Z,26.43
2023-02-22T08:35:51.728Z,25.77
2023-02-22T08:38:22.378Z,21.40
2023-02-22T08:40:53.120Z,24.37
2023-02-22T08:43:22.103Z,23.93
2023-02-22T08:45:51.596Z,24.87
2023-02-22T08:48:21.832Z,23.50
2023-02-22T08:50:50.201Z,25.70
2023-02-22T08:53:20.626Z,27.30
2023-02-22T08:55:51.275Z,20.17
2023-02-22T08:58:19.559Z,23.47
2023-02-22T09:00:48.366Z,24.80
2023-02-22T09:03:17.574Z,21.97
2023-02-22T09:05:47.158Z,23.13
2023-02-22T09:08:17.696Z,23.93
2023-02-22T09:10:46.359Z,24.83
2023-02-22T09:13:14.737Z,22.73
2023-02-22T09:15:42.882Z,21.70
2023-02-22T09:18:14.847Z,21.53
2023-02-22T09:20:43.323Z,19.37
2023-02-22T09:23:15.531Z,23.97
2023-02-22T09:25:43.666Z,21.40
2023-02-22T09:28:11.797Z,21.70
2023-02-22T09:30:40.131Z,21.07
2023-02-22T09:33:10.972Z,21.10
2023-02-22T09:35:46.348Z,20.27
2023-02-22T09:38:18.164Z,20.73
2023-02-22T09:40:49.997Z,21.80
2023-02-22T09:43:36.515Z,19.33
2023-02-22T09:46:23.434Z,21.40
2023-02-22T09:49:08.215Z,21.03
2023-02-22T09:51:42.896Z,21.27
2023-02-22T09:54:19.249Z,20.80
2023-02-22T09:56:49.622Z,21.13
2023-02-22T09:59:27.877Z,22.00
2023-02-22T10:02:06.689Z,20.97
2023-02-22T10:04:42.911Z,22.20
2023-02-22T10:07:19.415Z,18.87
2023-02-22T10:09:50.716Z,21.40
2023-02-22T10:12:29.486Z,21.47
2023-02-22T10:15:27.459Z,21.67
2023-02-22T10:18:04.954Z,17.90
2023-02-22T10:20:48.643Z,19.40
2023-02-22T10:23:25.253Z,17.23
2023-02-22T10:26:01.399Z,16.87
2023-02-22T10:28:40.626Z,18.33
2023-02-22T10:31:09.750Z,18.93
2023-02-22T10:33:47.859Z,19.60
2023-02-22T10:36:21.165Z,19.17
2023-02-22T10:38:54.652Z,17.90
2023-02-22T10:41:30.509Z,18.23
2023-02-22T10:44:06.120Z,21.73
2023-02-22T10:46:36.152Z,20.60
2023-02-22T10:49:08.112Z,21.30
2023-02-22T10:51:36.913Z,19.57
2023-02-22T10:54:22.293Z,16.53
2023-02-22T10:56:54.963Z,19.07
2023-02-22T10:59:32.791Z,19.37
2023-02-22T11:02:02.030Z,17.70
2023-02-22T11:04:46.590Z,21.53
2023-02-22T11:07:22.878Z,19.80
2023-02-22T11:09:54.708Z,19.13
2023-02-22T11:12:30.024Z,15.40
2023-02-22T11:14:58.153Z,16.87
2023-02-22T11:17:31.518Z,20.43
2023-02-22T11:20:01.032Z,19.27
2023-02-22T11:22:41.236Z,17.37
2023-02-22T11:25:10.270Z,20.17
2023-02-22T11:27:43.774Z,17.90
2023-02-22T11:30:29.531Z,17.53
2023-02-22T11:32:59.955Z,17.20
2023-02-22T11:35:38.825Z,19.13
2023-02-22T11:38:18.034Z,17.00
2023-02-22T11:40:46.813Z,18.50
2023-02-22T11:43:20.177Z,19.10
2023-02-22T11:46:02.395Z,19.80
2023-02-22T11:48:36.762Z,16.17
2023-02-22T11:51:17.803Z,16.40
2023-02-22T11:54:05.807Z,19.80
2023-02-22T11:56:41.108Z,17.07
2023-02-22T11:59:22.827Z,24.50
2023-02-22T12:01:55.476Z,16.97
2023-02-22T12:04:47.018Z,15.93
2023-02-22T12:07:27.134Z,17.63
2023-02-22T12:10:06.275Z,15.50
2023-02-22T12:12:44.231Z,17.23
2023-02-22T12:15:23.420Z,17.00
2023-02-22T12:18:05.192Z,19.07
2023-02-22T12:20:39.774Z,16.00
2023-02-22T12:23:20.111Z,18.87
2023-02-22T12:25:58.859Z,14.63
2023-02-22T12:28:35.353Z,15.40
2023-02-22T12:31:16.002Z,14.07
2023-02-22T12:33:52.872Z,12.73
2023-02-22T12:36:26.157Z,13.10
2023-02-22T12:39:07.227Z,14.57
2023-02-22T12:41:44.906Z,20.17
2023-02-22T12:44:20.654Z,13.13
2023-02-22T12:46:53.511Z,14.03
2023-02-22T12:49:29.505Z,13.10
2023-02-22T12:52:15.976Z,16.47
2023-02-22T12:55:00.699Z,12.63
2023-02-22T12:57:42.678Z,12.37
2023-02-22T13:00:20.300Z,11.50
2023-02-22T13:02:59.788Z,12.67
2023-02-22T13:05:31.540Z,12.70
2023-02-22T13:08:14.708Z,13.63
2023-02-22T13:11:02.685Z,11.27
2023-02-22T13:13:39.994Z,12.17
2023-02-22T13:16:21.889Z,11.30
2023-02-22T13:18:57.995Z,12.17
2023-02-22T13:21:37.439Z,13.37
2023-02-22T13:24:13.627Z,11.87
2023-02-22T13:26:48.404Z,15.07
2023-02-22T13:29:21.813Z,13.30
2023-02-22T13:32:16.296Z,11.70
2023-02-22T13:34:59.449Z,13.93
2023-02-22T13:37:54.753Z,22.70
2023-02-22T13:40:46.561Z,10.93
2023-02-22T13:43:51.337Z,11.23
2023-02-22T13:46:38.162Z,12.13
2023-02-22T13:49:40.578Z,13.93
2023-02-22T13:52:15.249Z,11.97
2023-02-22T13:54:51.507Z,12.87
2023-02-22T13:57:22.163Z,12.77
2023-02-22T14:00:11.333Z,12.33
2023-02-22T14:02:59.899Z,14.13
2023-02-22T14:05:49.719Z,11.73
2023-02-22T14:08:41.983Z,11.63
2023-02-22T14:11:54.112Z,13.63
2023-02-22T14:14:25.783Z,12.10
2023-02-22T14:17:23.874Z,12.37
2023-02-22T14:20:20.836Z,11.60
2023-02-22T14:22:50.950Z,11.10
2023-02-22T14:25:40.330Z,11.97
2023-02-22T14:28:11.169Z,12.20
2023-02-22T14:30:41.911Z,12.60
2023-02-22T14:33:47.278Z,10.17
2023-02-22T14:36:15.763Z,10.87
2023-02-22T14:38:47.760Z,11.13
2023-02-22T14:41:18.728Z,12.03
2023-02-22T14:43:47.681Z,12.43
2023-02-22T14:46:24.051Z,10.97
2023-02-22T14:48:58.269Z,12.47
2023-02-22T14:51:30.197Z,12.53
2023-02-22T14:54:04.747Z,12.43
2023-02-22T14:56:41.222Z,12.83
2023-02-22T14:59:19.536Z,11.97
2023-02-22T15:02:01.518Z,9.73
2023-02-22T15:04:34.405Z,10.60
2023-02-22T15:07:12.657Z,13.23
2023-02-22T15:09:46.686Z,12.03
2023-02-22T15:12:29.831Z,10.93
2023-02-22T15:15:18.570Z,11.20
2023-02-22T15:17:47.169Z,14.13
2023-02-22T15:20:17.925Z,12.13
2023-02-22T15:22:46.388Z,9.93
2023-02-22T15:25:15.291Z,8.93
2023-02-22T15:27:47.892Z,9.50
2023-02-22T15:30:23.399Z,8.93
2023-02-22T15:33:04.018Z,10.93
2023-02-22T15:35:35.371Z,8.67
2023-02-22T15:38:06.215Z,11.23
2023-02-22T15:40:37.140Z,9.73
2023-02-22T15:43:09.354Z,9.47
2023-02-22T15:45:42.940Z,9.40
2023-02-22T15:48:15.815Z,9.73
2023-02-22T15:51:04.168Z,12.47
2023-02-22T15:53:40.040Z,9.53
2023-02-22T15:56:12.364Z,9.00
2023-02-22T15:58:43.221Z,13.00
2023-02-22T16:01:14.322Z,9.70
2023-02-22T16:03:47.074Z,9.17
2023-02-22T16:06:22.086Z,12.57
2023-02-22T16:08:55.531Z,9.53
2023-02-22T16:11:30.778Z,9.60
2023-02-22T16:14:02.565Z,10.47
2023-02-22T16:16:34.990Z,9.13
2023-02-22T16:19:34.478Z,9.20
2023-02-22T16:22:04.565Z,8.40
2023-02-22T16:24:34.716Z,9.03
2023-02-22T16:27:16.707Z,9.50
2023-02-22T16:30:01.441Z,8.87
2023-02-22T16:32:30.426Z,9.40
2023-02-22T16:34:58.647Z,10.07
2023-02-22T16:37:28.575Z,8.00
2023-02-22T16:39:56.841Z,8.47
2023-02-22T16:42:25.160Z,8.93
2023-02-22T16:44:54.806Z,8.70
2023-02-22T16:47:23.252Z,8.73
2023-02-22T16:49:53.149Z,9.50
2023-02-22T16:52:22.097Z,8.57
2023-02-22T16:54:52.106Z,9.93
2023-02-22T16:57:22.605Z,11.40
2023-02-22T16:59:52.811Z,11.33
2023-02-22T17:02:22.962Z,10.13
2023-02-22T17:04:51.207Z,12.13
2023-02-22T17:07:24.191Z,10.70
2023-02-22T17:09:52.769Z,11.07
2023-02-22T17:12:21.018Z,9.63
2023-02-22T17:14:49.304Z,10.40
2023-02-22T17:17:17.785Z,11.23
2023-02-22T17:19:47.462Z,12.00
2023-02-22T17:22:19.026Z,9.93
2023-02-22T17:24:47.322Z,9.80
2023-02-22T17:27:15.621Z,11.53
2023-02-22T17:29:45.122Z,9.90
2023-02-22T17:32:14.201Z,10.10
2023-02-22T17:34:42.443Z,16.30
2023-02-22T17:37:12.393Z,15.40
2023-02-22T17:39:40.673Z,14.67
2023-02-22T17:42:08.881Z,15.50
2023-02-22T17:44:37.253Z,14.43
2023-02-22T17:47:06.165Z,15.33
2023-02-22T17:49:34.403Z,14.73
2023-02-22T17:52:06.308Z,15.67
2023-02-22T17:54:35.979Z,15.27
2023-02-22T17:57:04.388Z,14.93
2023-02-22T17:59:32.778Z,14.50
2023-02-22T18:02:03.617Z,18.63
2023-02-22T18:04:34.048Z,15.60
2023-02-22T18:07:02.334Z,15.07
2023-02-22T18:09:30.511Z,17.37
2023-02-22T18:12:00.128Z,17.93
2023-02-22T18:14:30.730Z,16.33
2023-02-22T18:16:58.865Z,16.83
2023-02-22T18:19:29.257Z,17.67
2023-02-22T18:22:00.141Z,15.30
2023-02-22T18:24:39.159Z,15.37
2023-02-22T18:27:21.284Z,15.80
2023-02-22T18:29:52.805Z,16.07
2023-02-22T18:32:23.252Z,17.63
2023-02-22T18:34:53.843Z,17.80
2023-02-22T18:37:22.064Z,17.42
2023-02-22T18:39:50.334Z,17.10
2023-02-22T18:42:21.482Z,19.37
2023-02-22T18:44:49.897Z,18.53
2023-02-22T18:47:18.787Z,18.47
2023-02-22T18:49:47.124Z,18.70
2023-02-22T18:52:15.684Z,19.17
2023-02-22T18:54:44.256Z,23.83
2023-02-22T18:57:13.635Z,23.10
2023-02-22T18:59:46.062Z,23.07
2023-02-22T19:02:15.432Z,21.30
2023-02-22T19:04:44.608Z,20.73
2023-02-22T19:07:17.951Z,20.20
2023-02-22T19:09:51.038Z,23.70
2023-02-22T19:12:19.180Z,19.57
2023-02-22T19:15:15.178Z,21.67
2023-02-22T19:17:47.330Z,21.27
2023-02-22T19:20:17.680Z,19.00
2023-02-22T19:22:49.570Z,17.17
2023-02-22T19:25:19.998Z,17.33
2023-02-22T19:27:50.708Z,19.83
2023-02-22T19:30:20.421Z,15.73
2023-02-22T19:32:48.737Z,19.20
2023-02-22T19:35:26.154Z,19.53
2023-02-22T19:37:57.124Z,23.60
2023-02-22T19:40:27.763Z,22.77
2023-02-22T19:42:58.615Z,33.73
2023-02-22T19:45:28.910Z,30.17
2023-02-22T19:48:00.604Z,21.23
2023-02-22T19:50:28.879Z,25.27
2023-02-22T19:52:59.397Z,20.63
2023-02-22T19:55:32.413Z,19.47
2023-02-22T19:58:01.203Z,19.70
2023-02-22T20:00:35.516Z,21.07
2023-02-22T20:03:06.723Z,17.83
2023-02-22T20:05:39.424Z,19.93
2023-02-22T20:08:08.042Z,21.50
2023-02-22T20:10:37.085Z,23.47
2023-02-22T20:13:05.261Z,22.53
2023-02-22T20:15:37.316Z,20.07
2023-02-22T20:18:06.137Z,19.13
2023-02-22T20:20:34.746Z,24.40
2023-02-22T20:23:02.873Z,23.80
2023-02-22T20:25:31.513Z,21.67
2023-02-22T20:28:03.009Z,21.47
2023-02-22T20:30:32.539Z,20.87
2023-02-22T20:33:02.311Z,24.00
2023-02-22T20:35:30.606Z,22.50
2023-02-22T20:37:59.667Z,23.13
2023-02-22T20:40:28.374Z,21.67
2023-02-22T20:42:57.092Z,25.27
2023-02-22T20:45:27.901Z,23.23
2023-02-22T20:47:56.195Z,21.70
2023-02-22T20:50:26.139Z,25.10
2023-02-22T20:52:54.302Z,23.53
2023-02-22T20:55:25.636Z,26.20
2023-02-22T20:57:56.411Z,24.37
2023-02-22T21:00:24.689Z,24.07
2023-02-22T21:02:53.084Z,25.77
2023-02-22T21:05:25.142Z,25.70
2023-02-22T21:07:58.411Z,26.60
2023-02-22T21:10:26.973Z,23.63
2023-02-22T21:12:56.968Z,26.20
2023-02-22T21:15:27.106Z,27.37
2023-02-22T21:17:57.993Z,25.87
2023-02-22T21:20:29.812Z,30.77
2023-02-22T21:23:01.955Z,28.77
2023-02-22T21:25:31.542Z,34.07
2023-02-22T21:27:59.825Z,25.67
2023-02-22T21:30:30.641Z,28.23
2023-02-22T21:32:58.830Z,30.67
2023-02-22T21:35:31.210Z,30.90
2023-02-22T21:37:59.562Z,35.93
2023-02-22T21:40:28.981Z,36.37
2023-02-22T21:42:57.147Z,35.57
2023-02-22T21:45:26.144Z,34.57
2023-02-22T21:47:57.270Z,32.33
2023-02-22T21:50:25.565Z,33.33
2023-02-22T21:52:55.231Z,35.33
2023-02-22T21:55:25.872Z,34.67
2023-02-22T21:57:56.402Z,34.63
2023-02-22T22:00:29.262Z,37.60
2023-02-22T22:03:01.324Z,35.70
2023-02-22T22:05:34.027Z,35.60
2023-02-22T22:08:07.445Z,37.23
2023-02-22T22:10:37.141Z,37.67
2023-02-22T22:13:06.123Z,34.13
2023-02-22T22:15:36.915Z,35.63
2023-02-22T22:18:07.756Z,34.00
2023-02-22T22:20:38.509Z,34.73
2023-02-22T22:23:08.863Z,34.57
2023-02-22T22:25:39.139Z,35.73
2023-02-22T22:28:11.402Z,31.97
2023-02-22T22:30:43.666Z,35.63
2023-02-22T22:33:12.110Z,36.00
2023-02-22T22:35:42.514Z,36.77
2023-02-22T22:38:15.441Z,36.97
2023-02-22T22:40:43.675Z,39.50
2023-02-22T22:43:11.886Z,36.40
2023-02-22T22:45:40.967Z,39.80
2023-02-22T22:48:09.500Z,34.63
2023-02-22T22:50:37.726Z,36.97
2023-02-22T22:53:06.538Z,40.43
2023-02-22T22:55:41.711Z,36.90
2023-02-22T22:58:11.098Z,39.07
2023-02-22T23:00:40.285Z,36.80
2023-02-22T23:03:12.656Z,36.43
2023-02-22T23:05:43.249Z,37.13
2023-02-22T23:08:12.868Z,35.40
2023-02-22T23:10:44.873Z,35.30
2023-02-22T23:13:15.574Z,36.70
2023-02-22T23:15:48.103Z,40.63
2023-02-22T23:18:20.432Z,36.97
2023-02-22T23:20:55.142Z,37.50
2023-02-22T23:23:27.509Z,43.63
2023-02-22T23:26:11.740Z,39.73
2023-02-22T23:28:41.204Z,43.33
2023-02-22T23:31:10.821Z,50.13
2023-02-22T23:33:41.904Z,43.17
2023-02-22T23:36:12.839Z,46.83
2023-02-22T23:38:41.970Z,48.17
2023-02-22T23:41:17.079Z,46.73
2023-02-22T23:43:47.700Z,49.87
2023-02-22T23:46:19.414Z,49.67
2023-02-22T23:48:51.862Z,53.07
2023-02-22T23:51:25.451Z,53.23
2023-02-22T23:53:55.569Z,56.50
2023-02-22T23:56:27.495Z,48.40
2023-02-22T23:58:57.369Z,51.07
